Alpine Forest, California
Current Conditions -  °F | °C
As of 4:15 PM on Friday 21 Nov 2014 (Local Time) from KTSP Reporting Station
Haze Haze  
Wind Chill:   Ceiling: 1700
Heat Index:   Visibility: 3mi
Dew Point:   Wind: 8mph
Humidity: 87%   Direction: 320°NW
Pressure: 30.1"   Gusts: NA
Location:  35.1338°N, 118.552°W
Report Text: KTSP 220015Z AUTO 32007KT 3SM BR OVC017 07/05 A3010 RMK AO2
Loading
Personal Weather Stations






























Interactive Weather Map New forecast layout! Learn more

10-Day Weather Forecast

Advertisements
Track Severe Weather on mobile